Pertusola — IBER — position and weather

sailwx.info

Track history (hours):
 
Tides and Currents Weather Stations Pressure Air Temp Water Temp Dewpoint Dewpoint Depression Visibility Wind Speed Wind Dir Waves Ship Positions

Pertusola

Last reported at 2016-Jun-22 15:33 UTC. Time now 2016-Jun-26 12:03 UTC.
Position N 55°49' E 016°00'.

Length 145 m; draft 9.3 m.

Type: Ship (hazmat cat A). MMSI: 247399000.

Date/timePositionNaut miles runAvg speedWind from/ knotsBaromVisibWave heightAir tempDewpointWater temp
2016-Jun-22 15:33N 55°49' E 016°00'1313.3
2016-Jun-22 14:33N 55°42' E 015°40'1413.5
2016-Jun-22 13:33N 55°36' E 015°19'1413.7
2016-Jun-22 12:34N 55°30' E 014°57'1313.3
2016-Jun-22 11:33N 55°22' E 014°38'1313.5
2016-Jun-22 10:33N 55°12' E 014°23'1413.5
2016-Jun-22 09:33N 55°01' E 014°08'1413.6
2016-Jun-22 08:33N 54°57' E 013°45'1413.4
2016-Jun-22 07:33N 54°53' E 013°23'1513.1
2016-Jun-22 06:24N 54°47' E 012°58'1112.7
2016-Jun-22 05:33N 54°44' E 012°41'1313.1
2016-Jun-22 04:33N 54°36' E 012°22'1313.1
2016-Jun-22 03:34N 54°25' E 012°10'1313.4
2016-Jun-22 02:33N 54°25' E 011°47'1413.6
2016-Jun-22 01:33N 54°30' E 011°26'1313.4
2016-Jun-22 00:33N 54°35' E 011°04'1413.6
2016-Jun-21 23:33N 54°34' E 010°41'1312.9
2016-Jun-21 22:33N 54°30' E 010°20'8 8.5
2016-Jun-21 21:33N 54°23' E 010°11'2 2.0
2016-Jun-21 20:33N 54°22' E 010°08'4 3.8
2016-Jun-21 19:33N 54°22' E 010°02'5 5.1
2016-Jun-21 18:31N 54°21' E 009°53'7 5.6
2016-Jun-21 17:19N 54°18' E 009°43'5 4.5
2016-Jun-21 16:18N 54°15' E 009°37'14 4.9
2016-Jun-21 13:31N 54°06' E 009°20'6 6.4
2016-Jun-21 12:33N 53°60' E 009°18'4 3.4
2016-Jun-21 11:20N 53°57' E 009°13'2 2.2
2016-Jun-21 10:32N 53°55' E 009°12'0 0.1
2016-Jun-21 09:32N 53°55' E 009°12'0 0.0
2016-Jun-21 08:32N 53°55' E 009°12'0 0.0
2016-Jun-21 07:32N 53°55' E 009°12'0 0.0
2016-Jun-21 06:32N 53°55' E 009°12'0 0.0
2016-Jun-21 04:32N 53°55' E 009°12'0 0.0
2016-Jun-21 03:32N 53°55' E 009°12'0 0.0
2016-Jun-21 02:32N 53°55' E 009°12'0 0.0
2016-Jun-21 01:26N 53°55' E 009°12'0 0.0
2016-Jun-21 00:26N 53°55' E 009°12'0 0.0
2016-Jun-20 23:32N 53°55' E 009°12'0 0.0
2016-Jun-20 22:29N 53°55' E 009°12'0 0.0
2016-Jun-20 21:32N 53°55' E 009°12'0 0.0
2016-Jun-20 20:32N 53°55' E 009°12'0 0.0
2016-Jun-20 19:32N 53°55' E 009°12'0 0.0
2016-Jun-20 18:23N 53°55' E 009°12'0 0.0
2016-Jun-20 17:32N 53°55' E 009°12'0 0.0
2016-Jun-20 16:29N 53°55' E 009°12'0 0.0
2016-Jun-20 15:29N 53°55' E 009°12'0 0.0
2016-Jun-20 14:29N 53°55' E 009°12'0 0.0
2016-Jun-20 13:23N 53°55' E 009°12'0 0.0
2016-Jun-20 12:23N 53°55' E 009°12'0 0.0
2016-Jun-20 11:29N 53°55' E 009°12'0 0.0
2016-Jun-20 10:32N 53°55' E 009°12'0 0.0
2016-Jun-20 09:32N 53°55' E 009°12'0 0.0
2016-Jun-20 08:29N 53°55' E 009°12'0 0.0
2016-Jun-20 07:32N 53°55' E 009°12'0 0.0
2016-Jun-20 06:29N 53°55' E 009°12'0 0.0
2016-Jun-20 05:26N 53°55' E 009°12'0 0.5
2016-Jun-20 04:33N 53°55' E 009°11'2 2.1
2016-Jun-20 03:33N 53°54' E 009°09'6 6.4
2016-Jun-20 02:33N 53°51' E 008°59'1111.2
2016-Jun-20 01:33N 53°55' E 008°41'1211.6
2016-Jun-20 00:33N 53°59' E 008°23'1110.7
2016-Jun-19 23:33N 53°60' E 008°05'4 3.5
2016-Jun-19 22:30N 54°03' E 008°09'0 0.0
2016-Jun-19 21:33N 54°03' E 008°09'0 0.0
2016-Jun-19 20:30N 54°03' E 008°09'0 0.0
2016-Jun-19 19:33N 54°03' E 008°09'0 0.0
2016-Jun-19 18:33N 54°03' E 008°09'0 0.2
2016-Jun-19 17:33N 54°03' E 008°09'0 0.1
2016-Jun-19 16:33N 54°03' E 008°09'0 0.0
2016-Jun-19 15:33N 54°03' E 008°09'0 0.0
2016-Jun-19 14:33N 54°03' E 008°09'2 2.4
2016-Jun-19 13:34N 54°03' E 008°05'9 8.7
2016-Jun-19 12:33N 54°04' E 007°50'1212.0
2016-Jun-19 11:34N 54°14' E 007°38'1413.6
2016-Jun-19 10:34N 54°25' E 007°24'1514.7
2016-Jun-19 09:33N 54°35' E 007°06'1514.9
2016-Jun-19 08:33N 54°46' E 006°48'1514.9
2016-Jun-19 07:31N 54°57' E 006°30'1414.8
2016-Jun-19 06:33N 55°12' E 006°30'14614.1
2016-Jun-18 20:10N 57°35' E 007°27'2712.8
2016-Jun-18 18:04N 57°50' E 008°08'713.5
2016-Jun-18 17:34N 57°53' E 008°19'1513.9
2016-Jun-18 16:30N 58°01' E 008°43'1313.8
2016-Jun-18 15:33N 58°10' E 009°00'1413.8
2016-Jun-18 14:33N 58°20' E 009°19'1414.0
2016-Jun-18 13:33N 58°31' E 009°35'1413.3
2016-Jun-18 12:32N 58°44' E 009°41'1414.0
2016-Jun-18 11:33N 58°57' E 009°47'  
2016-Jun-14 23:11N 59°07' E 009°38'2 3.7
2016-Jun-14 22:33N 59°04' E 009°39'8 8.2
2016-Jun-14 21:33N 58°58' E 009°48'8 7.8
2016-Jun-14 20:33N 58°50' E 009°48'4 4.3
2016-Jun-14 19:33N 58°46' E 009°47'1312.6
2016-Jun-14 18:33N 58°33' E 009°48'1313.2
2016-Jun-14 17:33N 58°22' E 009°33'35112.5
2016-Jun-13 13:33N 53°43' E 003°13'13013.0
2016-Jun-13 03:33N 51°36' E 002°24'1212.3
2016-Jun-13 02:33N 51°26' E 002°13'1212.3
2016-Jun-13 01:33N 51°15' E 002°05'1212.1
2016-Jun-13 00:33N 51°09' E 001°48'1212.2
2016-Jun-12 23:33N 50°60' E 001°35'6011.9
2016-Jun-12 18:33N 50°24' E 000°20'1312.9
2016-Jun-12 17:33N 50°21' W 000°00'  
Track history (hours):
 
Tides and Currents Weather Stations Pressure Air Temp Water Temp Dewpoint Dewpoint Depression Visibility Wind Speed Wind Dir Waves Ship Positions

Pertusola

Last reported at 2016-Jun-22 15:33 UTC. Time now 2016-Jun-26 12:03 UTC.
Position N 55°49' E 016°00'.

Length 145 m; draft 9.3 m.

Type: Ship (hazmat cat A). MMSI: 247399000.

Date/timePositionNaut miles runAvg speedWind from/ knotsBaromVisibWave heightAir tempDewpointWater temp
2016-Jun-22 15:33N 55°49' E 016°00'1313.3
2016-Jun-22 14:33N 55°42' E 015°40'1413.5
2016-Jun-22 13:33N 55°36' E 015°19'1413.7
2016-Jun-22 12:34N 55°30' E 014°57'1313.3
2016-Jun-22 11:33N 55°22' E 014°38'1313.5
2016-Jun-22 10:33N 55°12' E 014°23'1413.5
2016-Jun-22 09:33N 55°01' E 014°08'1413.6
2016-Jun-22 08:33N 54°57' E 013°45'1413.4
2016-Jun-22 07:33N 54°53' E 013°23'1513.1
2016-Jun-22 06:24N 54°47' E 012°58'1112.7
2016-Jun-22 05:33N 54°44' E 012°41'1313.1
2016-Jun-22 04:33N 54°36' E 012°22'1313.1
2016-Jun-22 03:34N 54°25' E 012°10'1313.4
2016-Jun-22 02:33N 54°25' E 011°47'1413.6
2016-Jun-22 01:33N 54°30' E 011°26'1313.4
2016-Jun-22 00:33N 54°35' E 011°04'1413.6
2016-Jun-21 23:33N 54°34' E 010°41'1312.9
2016-Jun-21 22:33N 54°30' E 010°20'8 8.5
2016-Jun-21 21:33N 54°23' E 010°11'2 2.0
2016-Jun-21 20:33N 54°22' E 010°08'4 3.8
2016-Jun-21 19:33N 54°22' E 010°02'5 5.1
2016-Jun-21 18:31N 54°21' E 009°53'7 5.6
2016-Jun-21 17:19N 54°18' E 009°43'5 4.5
2016-Jun-21 16:18N 54°15' E 009°37'14 4.9
2016-Jun-21 13:31N 54°06' E 009°20'6 6.4
2016-Jun-21 12:33N 53°60' E 009°18'4 3.4
2016-Jun-21 11:20N 53°57' E 009°13'2 2.2
2016-Jun-21 10:32N 53°55' E 009°12'0 0.1
2016-Jun-21 09:32N 53°55' E 009°12'0 0.0
2016-Jun-21 08:32N 53°55' E 009°12'0 0.0
2016-Jun-21 07:32N 53°55' E 009°12'0 0.0
2016-Jun-21 06:32N 53°55' E 009°12'0 0.0
2016-Jun-21 04:32N 53°55' E 009°12'0 0.0
2016-Jun-21 03:32N 53°55' E 009°12'0 0.0
2016-Jun-21 02:32N 53°55' E 009°12'0 0.0
2016-Jun-21 01:26N 53°55' E 009°12'0 0.0
2016-Jun-21 00:26N 53°55' E 009°12'0 0.0
2016-Jun-20 23:32N 53°55' E 009°12'0 0.0
2016-Jun-20 22:29N 53°55' E 009°12'0 0.0
2016-Jun-20 21:32N 53°55' E 009°12'0 0.0
2016-Jun-20 20:32N 53°55' E 009°12'0 0.0
2016-Jun-20 19:32N 53°55' E 009°12'0 0.0
2016-Jun-20 18:23N 53°55' E 009°12'0 0.0
2016-Jun-20 17:32N 53°55' E 009°12'0 0.0
2016-Jun-20 16:29N 53°55' E 009°12'0 0.0
2016-Jun-20 15:29N 53°55' E 009°12'0 0.0
2016-Jun-20 14:29N 53°55' E 009°12'0 0.0
2016-Jun-20 13:23N 53°55' E 009°12'0 0.0
2016-Jun-20 12:23N 53°55' E 009°12'0 0.0
2016-Jun-20 11:29N 53°55' E 009°12'0 0.0
2016-Jun-20 10:32N 53°55' E 009°12'0 0.0
2016-Jun-20 09:32N 53°55' E 009°12'0 0.0
2016-Jun-20 08:29N 53°55' E 009°12'0 0.0
2016-Jun-20 07:32N 53°55' E 009°12'0 0.0
2016-Jun-20 06:29N 53°55' E 009°12'0 0.0
2016-Jun-20 05:26N 53°55' E 009°12'0 0.5
2016-Jun-20 04:33N 53°55' E 009°11'2 2.1
2016-Jun-20 03:33N 53°54' E 009°09'6 6.4
2016-Jun-20 02:33N 53°51' E 008°59'1111.2
2016-Jun-20 01:33N 53°55' E 008°41'1211.6
2016-Jun-20 00:33N 53°59' E 008°23'1110.7
2016-Jun-19 23:33N 53°60' E 008°05'4 3.5
2016-Jun-19 22:30N 54°03' E 008°09'0 0.0
2016-Jun-19 21:33N 54°03' E 008°09'0 0.0
2016-Jun-19 20:30N 54°03' E 008°09'0 0.0
2016-Jun-19 19:33N 54°03' E 008°09'0 0.0
2016-Jun-19 18:33N 54°03' E 008°09'0 0.2
2016-Jun-19 17:33N 54°03' E 008°09'0 0.1
2016-Jun-19 16:33N 54°03' E 008°09'0 0.0
2016-Jun-19 15:33N 54°03' E 008°09'0 0.0
2016-Jun-19 14:33N 54°03' E 008°09'2 2.4
2016-Jun-19 13:34N 54°03' E 008°05'9 8.7
2016-Jun-19 12:33N 54°04' E 007°50'1212.0
2016-Jun-19 11:34N 54°14' E 007°38'1413.6
2016-Jun-19 10:34N 54°25' E 007°24'1514.7
2016-Jun-19 09:33N 54°35' E 007°06'1514.9
2016-Jun-19 08:33N 54°46' E 006°48'1514.9
2016-Jun-19 07:31N 54°57' E 006°30'1414.8
2016-Jun-19 06:33N 55°12' E 006°30'14614.1
2016-Jun-18 20:10N 57°35' E 007°27'2712.8
2016-Jun-18 18:04N 57°50' E 008°08'713.5
2016-Jun-18 17:34N 57°53' E 008°19'1513.9
2016-Jun-18 16:30N 58°01' E 008°43'1313.8
2016-Jun-18 15:33N 58°10' E 009°00'1413.8
2016-Jun-18 14:33N 58°20' E 009°19'1414.0
2016-Jun-18 13:33N 58°31' E 009°35'1413.3
2016-Jun-18 12:32N 58°44' E 009°41'1414.0
2016-Jun-18 11:33N 58°57' E 009°47'  
2016-Jun-14 23:11N 59°07' E 009°38'2 3.7
2016-Jun-14 22:33N 59°04' E 009°39'8 8.2
2016-Jun-14 21:33N 58°58' E 009°48'8 7.8
2016-Jun-14 20:33N 58°50' E 009°48'4 4.3
2016-Jun-14 19:33N 58°46' E 009°47'1312.6
2016-Jun-14 18:33N 58°33' E 009°48'1313.2
2016-Jun-14 17:33N 58°22' E 009°33'35112.5
2016-Jun-13 13:33N 53°43' E 003°13'13013.0
2016-Jun-13 03:33N 51°36' E 002°24'1212.3
2016-Jun-13 02:33N 51°26' E 002°13'1212.3
2016-Jun-13 01:33N 51°15' E 002°05'1212.1
2016-Jun-13 00:33N 51°09' E 001°48'1212.2
2016-Jun-12 23:33N 50°60' E 001°35'6011.9
2016-Jun-12 18:33N 50°24' E 000°20'1312.9
2016-Jun-12 17:33N 50°21' W 000°00'  

Dump ship's entire track history